sensor_id;sensor_type;location;lat;lon;timestamp;P1;durP1;ratioP1;P2;durP2;ratioP2
1136;SDS011;557;48.466;7.950;2023-07-31T00:02:28;4.13;;;2.93;;
1136;SDS011;557;48.466;7.950;2023-07-31T00:05:15;4.57;;;2.80;;
1136;SDS011;557;48.466;7.950;2023-07-31T00:08:03;4.00;;;3.10;;
1136;SDS011;557;48.466;7.950;2023-07-31T00:10:52;3.80;;;2.40;;
1136;SDS011;557;48.466;7.950;2023-07-31T00:13:40;3.00;;;2.70;;
1136;SDS011;557;48.466;7.950;2023-07-31T00:16:28;4.30;;;3.40;;
1136;SDS011;557;48.466;7.950;2023-07-31T00:19:16;5.43;;;2.73;;
1136;SDS011;557;48.466;7.950;2023-07-31T00:22:04;3.53;;;2.50;;
1136;SDS011;557;48.466;7.950;2023-07-31T00:24:52;4.27;;;3.30;;
1136;SDS011;557;48.466;7.950;2023-07-31T00:27:41;4.50;;;2.90;;
1136;SDS011;557;48.466;7.950;2023-07-31T00:30:30;4.53;;;3.13;;
1136;SDS011;557;48.466;7.950;2023-07-31T00:33:18;4.87;;;2.90;;
1136;SDS011;557;48.466;7.950;2023-07-31T00:36:06;3.53;;;3.23;;
1136;SDS011;557;48.466;7.950;2023-07-31T00:38:53;4.73;;;3.60;;
1136;SDS011;557;48.466;7.950;2023-07-31T00:41:41;4.43;;;2.87;;
1136;SDS011;557;48.466;7.950;2023-07-31T00:44:30;5.40;;;3.40;;
1136;SDS011;557;48.466;7.950;2023-07-31T00:47:19;7.57;;;3.43;;
1136;SDS011;557;48.466;7.950;2023-07-31T00:50:07;4.10;;;2.90;;
1136;SDS011;557;48.466;7.950;2023-07-31T00:52:55;5.73;;;2.90;;
1136;SDS011;557;48.466;7.950;2023-07-31T00:55:43;5.87;;;3.20;;
1136;SDS011;557;48.466;7.950;2023-07-31T00:58:32;3.90;;;3.30;;
1136;SDS011;557;48.466;7.950;2023-07-31T01:01:21;6.90;;;3.20;;
1136;SDS011;557;48.466;7.950;2023-07-31T01:04:09;4.40;;;3.07;;
1136;SDS011;557;48.466;7.950;2023-07-31T01:07:00;4.10;;;2.80;;
1136;SDS011;557;48.466;7.950;2023-07-31T01:09:52;4.57;;;2.83;;
1136;SDS011;557;48.466;7.950;2023-07-31T01:12:47;3.43;;;3.03;;
1136;SDS011;557;48.466;7.950;2023-07-31T01:15:37;6.63;;;3.83;;
1136;SDS011;557;48.466;7.950;2023-07-31T01:18:26;3.70;;;2.70;;
1136;SDS011;557;48.466;7.950;2023-07-31T01:21:18;6.90;;;2.67;;
1136;SDS011;557;48.466;7.950;2023-07-31T01:24:22;3.70;;;2.70;;
1136;SDS011;557;48.466;7.950;2023-07-31T01:27:17;4.27;;;2.93;;
1136;SDS011;557;48.466;7.950;2023-07-31T01:30:11;6.63;;;3.10;;
1136;SDS011;557;48.466;7.950;2023-07-31T01:33:03;2.80;;;2.50;;
1136;SDS011;557;48.466;7.950;2023-07-31T01:35:53;3.40;;;3.03;;
1136;SDS011;557;48.466;7.950;2023-07-31T01:38:42;4.80;;;3.13;;
1136;SDS011;557;48.466;7.950;2023-07-31T01:41:30;3.50;;;3.00;;
1136;SDS011;557;48.466;7.950;2023-07-31T01:44:19;4.63;;;3.27;;
1136;SDS011;557;48.466;7.950;2023-07-31T01:47:07;6.50;;;3.33;;
1136;SDS011;557;48.466;7.950;2023-07-31T01:49:55;3.53;;;2.77;;
1136;SDS011;557;48.466;7.950;2023-07-31T01:52:42;4.90;;;3.00;;
1136;SDS011;557;48.466;7.950;2023-07-31T01:55:30;3.43;;;2.93;;
1136;SDS011;557;48.466;7.950;2023-07-31T01:58:18;3.10;;;2.50;;
1136;SDS011;557;48.466;7.950;2023-07-31T02:01:07;3.50;;;2.70;;
1136;SDS011;557;48.466;7.950;2023-07-31T02:03:55;3.63;;;3.00;;
1136;SDS011;557;48.466;7.950;2023-07-31T02:06:43;7.30;;;3.03;;
1136;SDS011;557;48.466;7.950;2023-07-31T02:09:31;5.10;;;3.20;;
1136;SDS011;557;48.466;7.950;2023-07-31T02:12:19;4.43;;;3.37;;
1136;SDS011;557;48.466;7.950;2023-07-31T02:15:07;6.60;;;3.20;;
1136;SDS011;557;48.466;7.950;2023-07-31T02:17:56;4.47;;;3.40;;
1136;SDS011;557;48.466;7.950;2023-07-31T02:20:48;4.10;;;3.13;;
1136;SDS011;557;48.466;7.950;2023-07-31T02:23:36;4.23;;;2.80;;
1136;SDS011;557;48.466;7.950;2023-07-31T02:26:24;6.17;;;3.60;;
1136;SDS011;557;48.466;7.950;2023-07-31T02:29:12;3.30;;;3.00;;
1136;SDS011;557;48.466;7.950;2023-07-31T02:32:00;8.67;;;3.00;;
1136;SDS011;557;48.466;7.950;2023-07-31T02:34:49;3.40;;;3.03;;
1136;SDS011;557;48.466;7.950;2023-07-31T02:37:37;6.80;;;3.40;;
1136;SDS011;557;48.466;7.950;2023-07-31T02:40:25;3.30;;;2.97;;
1136;SDS011;557;48.466;7.950;2023-07-31T02:43:12;4.33;;;3.07;;
1136;SDS011;557;48.466;7.950;2023-07-31T02:46:00;3.80;;;2.90;;
1136;SDS011;557;48.466;7.950;2023-07-31T02:48:48;7.93;;;3.93;;
1136;SDS011;557;48.466;7.950;2023-07-31T02:51:37;4.97;;;3.40;;
1136;SDS011;557;48.466;7.950;2023-07-31T02:54:25;3.90;;;3.10;;
1136;SDS011;557;48.466;7.950;2023-07-31T02:57:12;3.70;;;3.10;;
1136;SDS011;557;48.466;7.950;2023-07-31T03:00:05;5.23;;;2.80;;
1136;SDS011;557;48.466;7.950;2023-07-31T03:02:58;6.70;;;3.10;;
1136;SDS011;557;48.466;7.950;2023-07-31T03:05:45;4.57;;;2.87;;
1136;SDS011;557;48.466;7.950;2023-07-31T03:08:34;5.23;;;2.87;;
1136;SDS011;557;48.466;7.950;2023-07-31T03:11:22;7.13;;;3.00;;
1136;SDS011;557;48.466;7.950;2023-07-31T03:14:10;5.30;;;2.90;;
1136;SDS011;557;48.466;7.950;2023-07-31T03:16:58;6.40;;;3.03;;
1136;SDS011;557;48.466;7.950;2023-07-31T03:19:46;4.40;;;2.97;;
1136;SDS011;557;48.466;7.950;2023-07-31T03:22:34;5.97;;;3.30;;
1136;SDS011;557;48.466;7.950;2023-07-31T03:25:23;11.50;;;4.07;;
1136;SDS011;557;48.466;7.950;2023-07-31T03:28:11;5.57;;;2.80;;
1136;SDS011;557;48.466;7.950;2023-07-31T03:30:59;6.77;;;3.17;;
1136;SDS011;557;48.466;7.950;2023-07-31T03:33:46;4.20;;;2.77;;
1136;SDS011;557;48.466;7.950;2023-07-31T03:36:34;3.80;;;2.70;;
1136;SDS011;557;48.466;7.950;2023-07-31T03:39:22;6.00;;;3.40;;
1136;SDS011;557;48.466;7.950;2023-07-31T03:42:11;3.57;;;2.60;;
1136;SDS011;557;48.466;7.950;2023-07-31T03:44:59;7.00;;;3.30;;
1136;SDS011;557;48.466;7.950;2023-07-31T03:47:47;4.07;;;3.20;;
1136;SDS011;557;48.466;7.950;2023-07-31T03:50:35;8.20;;;3.77;;
1136;SDS011;557;48.466;7.950;2023-07-31T03:53:22;4.30;;;3.30;;
1136;SDS011;557;48.466;7.950;2023-07-31T03:56:10;8.83;;;3.07;;
1136;SDS011;557;48.466;7.950;2023-07-31T03:58:59;5.43;;;3.30;;
1136;SDS011;557;48.466;7.950;2023-07-31T04:01:47;4.40;;;2.80;;
1136;SDS011;557;48.466;7.950;2023-07-31T04:04:35;3.53;;;3.20;;
1136;SDS011;557;48.466;7.950;2023-07-31T04:07:22;3.93;;;2.80;;
1136;SDS011;557;48.466;7.950;2023-07-31T04:10:10;4.83;;;3.03;;
1136;SDS011;557;48.466;7.950;2023-07-31T04:12:58;6.60;;;3.37;;
1136;SDS011;557;48.466;7.950;2023-07-31T04:15:49;5.50;;;3.37;;
1136;SDS011;557;48.466;7.950;2023-07-31T04:18:37;6.73;;;3.63;;
1136;SDS011;557;48.466;7.950;2023-07-31T04:21:25;5.80;;;3.13;;
1136;SDS011;557;48.466;7.950;2023-07-31T04:24:12;5.70;;;3.60;;
1136;SDS011;557;48.466;7.950;2023-07-31T04:27:02;4.30;;;3.90;;
1136;SDS011;557;48.466;7.950;2023-07-31T04:29:50;5.70;;;3.50;;
1136;SDS011;557;48.466;7.950;2023-07-31T04:32:39;6.03;;;3.33;;
1136;SDS011;557;48.466;7.950;2023-07-31T04:35:27;5.43;;;3.53;;
1136;SDS011;557;48.466;7.950;2023-07-31T04:38:15;4.60;;;3.10;;
1136;SDS011;557;48.466;7.950;2023-07-31T04:41:02;5.67;;;3.30;;
1136;SDS011;557;48.466;7.950;2023-07-31T04:43:51;3.30;;;3.00;;
1136;SDS011;557;48.466;7.950;2023-07-31T04:46:39;4.50;;;3.53;;
1136;SDS011;557;48.466;7.950;2023-07-31T04:49:28;4.47;;;3.30;;
1136;SDS011;557;48.466;7.950;2023-07-31T04:52:15;6.30;;;3.70;;
1136;SDS011;557;48.466;7.950;2023-07-31T04:55:03;5.13;;;3.73;;
1136;SDS011;557;48.466;7.950;2023-07-31T04:57:51;4.93;;;3.70;;
1136;SDS011;557;48.466;7.950;2023-07-31T05:00:39;6.10;;;3.00;;
1136;SDS011;557;48.466;7.950;2023-07-31T05:06:34;4.27;;;3.40;;
1136;SDS011;557;48.466;7.950;2023-07-31T05:09:22;3.73;;;3.33;;
1136;SDS011;557;48.466;7.950;2023-07-31T05:12:10;6.93;;;3.70;;
1136;SDS011;557;48.466;7.950;2023-07-31T05:14:57;4.77;;;3.40;;
1136;SDS011;557;48.466;7.950;2023-07-31T05:17:45;6.20;;;3.70;;
1136;SDS011;557;48.466;7.950;2023-07-31T05:20:33;4.60;;;3.17;;
1136;SDS011;557;48.466;7.950;2023-07-31T05:23:23;5.43;;;3.77;;
1136;SDS011;557;48.466;7.950;2023-07-31T05:26:12;3.13;;;2.83;;
1136;SDS011;557;48.466;7.950;2023-07-31T05:29:00;5.60;;;2.97;;
1136;SDS011;557;48.466;7.950;2023-07-31T05:31:48;6.23;;;3.27;;
1136;SDS011;557;48.466;7.950;2023-07-31T05:34:37;3.73;;;3.00;;
1136;SDS011;557;48.466;7.950;2023-07-31T05:37:24;3.40;;;3.03;;
1136;SDS011;557;48.466;7.950;2023-07-31T05:40:14;6.10;;;3.30;;
1136;SDS011;557;48.466;7.950;2023-07-31T05:43:02;4.37;;;3.10;;
1136;SDS011;557;48.466;7.950;2023-07-31T05:45:52;5.30;;;3.23;;
1136;SDS011;557;48.466;7.950;2023-07-31T05:48:40;4.40;;;3.53;;
1136;SDS011;557;48.466;7.950;2023-07-31T05:51:28;6.27;;;3.27;;
1136;SDS011;557;48.466;7.950;2023-07-31T05:54:15;8.03;;;3.20;;
1136;SDS011;557;48.466;7.950;2023-07-31T05:57:05;7.57;;;3.40;;
1136;SDS011;557;48.466;7.950;2023-07-31T05:59:53;8.60;;;3.40;;
1136;SDS011;557;48.466;7.950;2023-07-31T06:02:41;3.10;;;2.80;;
1136;SDS011;557;48.466;7.950;2023-07-31T06:05:29;4.00;;;2.90;;
1136;SDS011;557;48.466;7.950;2023-07-31T06:08:17;4.23;;;2.80;;
1136;SDS011;557;48.466;7.950;2023-07-31T06:11:05;4.40;;;3.20;;
1136;SDS011;557;48.466;7.950;2023-07-31T06:13:56;4.20;;;3.20;;
1136;SDS011;557;48.466;7.950;2023-07-31T06:19:50;8.10;;;3.87;;
1136;SDS011;557;48.466;7.950;2023-07-31T06:22:38;5.30;;;3.40;;
1136;SDS011;557;48.466;7.950;2023-07-31T06:25:26;7.23;;;4.27;;
1136;SDS011;557;48.466;7.950;2023-07-31T06:28:15;4.97;;;3.10;;
1136;SDS011;557;48.466;7.950;2023-07-31T06:31:04;5.40;;;3.40;;
1136;SDS011;557;48.466;7.950;2023-07-31T06:33:52;5.00;;;3.63;;
1136;SDS011;557;48.466;7.950;2023-07-31T06:36:41;7.00;;;2.90;;
1136;SDS011;557;48.466;7.950;2023-07-31T06:39:29;5.10;;;3.20;;
1136;SDS011;557;48.466;7.950;2023-07-31T06:42:16;4.53;;;3.17;;
1136;SDS011;557;48.466;7.950;2023-07-31T06:45:05;6.43;;;3.80;;
1136;SDS011;557;48.466;7.950;2023-07-31T06:47:56;4.90;;;3.90;;
1136;SDS011;557;48.466;7.950;2023-07-31T06:50:47;11.10;;;3.83;;
1136;SDS011;557;48.466;7.950;2023-07-31T06:53:35;4.30;;;3.90;;
1136;SDS011;557;48.466;7.950;2023-07-31T06:56:23;4.50;;;4.07;;
1136;SDS011;557;48.466;7.950;2023-07-31T06:59:15;5.27;;;4.40;;
1136;SDS011;557;48.466;7.950;2023-07-31T07:02:03;5.77;;;5.27;;
1136;SDS011;557;48.466;7.950;2023-07-31T07:04:53;7.40;;;5.67;;
1136;SDS011;557;48.466;7.950;2023-07-31T07:07:42;6.37;;;5.87;;
1136;SDS011;557;48.466;7.950;2023-07-31T07:10:31;7.07;;;6.53;;
1136;SDS011;557;48.466;7.950;2023-07-31T07:13:19;7.63;;;7.03;;
1136;SDS011;557;48.466;7.950;2023-07-31T07:16:08;8.10;;;7.30;;
1136;SDS011;557;48.466;7.950;2023-07-31T07:18:57;9.13;;;8.50;;
1136;SDS011;557;48.466;7.950;2023-07-31T07:21:46;9.63;;;9.00;;
1136;SDS011;557;48.466;7.950;2023-07-31T07:24:34;10.30;;;9.70;;
1136;SDS011;557;48.466;7.950;2023-07-31T07:27:24;9.90;;;9.30;;
1136;SDS011;557;48.466;7.950;2023-07-31T07:30:11;10.10;;;9.40;;
1136;SDS011;557;48.466;7.950;2023-07-31T07:33:00;11.43;;;10.73;;
1136;SDS011;557;48.466;7.950;2023-07-31T07:35:48;11.53;;;10.80;;
1136;SDS011;557;48.466;7.950;2023-07-31T07:38:38;12.23;;;11.40;;
1136;SDS011;557;48.466;7.950;2023-07-31T07:41:26;12.47;;;11.70;;
1136;SDS011;557;48.466;7.950;2023-07-31T07:44:14;12.13;;;11.43;;
1136;SDS011;557;48.466;7.950;2023-07-31T07:47:03;11.60;;;10.90;;
1136;SDS011;557;48.466;7.950;2023-07-31T07:49:52;12.10;;;11.50;;
1136;SDS011;557;48.466;7.950;2023-07-31T07:52:40;11.80;;;11.10;;
1136;SDS011;557;48.466;7.950;2023-07-31T07:55:29;12.23;;;11.40;;
1136;SDS011;557;48.466;7.950;2023-07-31T07:58:17;12.97;;;12.10;;
1136;SDS011;557;48.466;7.950;2023-07-31T08:01:06;11.93;;;11.30;;
1136;SDS011;557;48.466;7.950;2023-07-31T08:03:54;11.97;;;11.23;;
1136;SDS011;557;48.466;7.950;2023-07-31T08:06:43;13.43;;;12.50;;
1136;SDS011;557;48.466;7.950;2023-07-31T08:09:31;12.97;;;12.07;;
1136;SDS011;557;48.466;7.950;2023-07-31T08:12:20;12.33;;;11.73;;
1136;SDS011;557;48.466;7.950;2023-07-31T08:15:09;13.40;;;12.30;;
1136;SDS011;557;48.466;7.950;2023-07-31T08:17:58;12.80;;;12.10;;
1136;SDS011;557;48.466;7.950;2023-07-31T08:20:46;13.23;;;12.53;;
1136;SDS011;557;48.466;7.950;2023-07-31T08:23:34;13.47;;;12.70;;
1136;SDS011;557;48.466;7.950;2023-07-31T08:26:23;12.87;;;12.10;;
1136;SDS011;557;48.466;7.950;2023-07-31T08:29:12;14.07;;;12.40;;
1136;SDS011;557;48.466;7.950;2023-07-31T08:32:01;13.20;;;12.30;;
1136;SDS011;557;48.466;7.950;2023-07-31T08:34:50;12.90;;;12.07;;
1136;SDS011;557;48.466;7.950;2023-07-31T08:37:38;13.80;;;12.87;;
1136;SDS011;557;48.466;7.950;2023-07-31T08:40:27;13.50;;;12.70;;
1136;SDS011;557;48.466;7.950;2023-07-31T08:43:16;13.27;;;12.37;;
1136;SDS011;557;48.466;7.950;2023-07-31T08:46:08;13.13;;;12.40;;
1136;SDS011;557;48.466;7.950;2023-07-31T08:48:56;12.40;;;11.67;;
1136;SDS011;557;48.466;7.950;2023-07-31T08:51:46;13.03;;;12.00;;
1136;SDS011;557;48.466;7.950;2023-07-31T08:54:36;13.33;;;12.53;;
1136;SDS011;557;48.466;7.950;2023-07-31T08:57:24;13.00;;;12.30;;
1136;SDS011;557;48.466;7.950;2023-07-31T09:00:14;13.87;;;13.00;;
1136;SDS011;557;48.466;7.950;2023-07-31T09:03:09;14.70;;;13.60;;
1136;SDS011;557;48.466;7.950;2023-07-31T09:06:01;14.80;;;14.00;;
1136;SDS011;557;48.466;7.950;2023-07-31T09:08:52;14.83;;;14.00;;
1136;SDS011;557;48.466;7.950;2023-07-31T09:11:42;14.07;;;13.27;;
1136;SDS011;557;48.466;7.950;2023-07-31T09:14:32;13.43;;;12.73;;
1136;SDS011;557;48.466;7.950;2023-07-31T09:17:28;14.13;;;13.20;;
1136;SDS011;557;48.466;7.950;2023-07-31T09:20:19;14.73;;;13.77;;
1136;SDS011;557;48.466;7.950;2023-07-31T09:23:09;14.83;;;14.00;;
1136;SDS011;557;48.466;7.950;2023-07-31T09:25:58;14.77;;;13.80;;
1136;SDS011;557;48.466;7.950;2023-07-31T09:28:47;14.07;;;13.27;;
1136;SDS011;557;48.466;7.950;2023-07-31T09:31:38;15.83;;;14.77;;
1136;SDS011;557;48.466;7.950;2023-07-31T09:34:31;16.10;;;15.10;;
1136;SDS011;557;48.466;7.950;2023-07-31T09:37:26;14.93;;;14.03;;
1136;SDS011;557;48.466;7.950;2023-07-31T09:40:26;14.83;;;14.03;;
1136;SDS011;557;48.466;7.950;2023-07-31T09:43:18;15.50;;;14.50;;
1136;SDS011;557;48.466;7.950;2023-07-31T09:46:12;15.70;;;14.90;;
1136;SDS011;557;48.466;7.950;2023-07-31T09:49:07;16.70;;;15.70;;
1136;SDS011;557;48.466;7.950;2023-07-31T09:51:56;17.87;;;16.63;;
1136;SDS011;557;48.466;7.950;2023-07-31T09:54:46;16.80;;;15.80;;
1136;SDS011;557;48.466;7.950;2023-07-31T09:57:36;16.55;;;15.35;;
1136;SDS011;557;48.466;7.950;2023-07-31T10:00:27;14.60;;;13.70;;
1136;SDS011;557;48.466;7.950;2023-07-31T10:03:18;14.67;;;13.60;;
1136;SDS011;557;48.466;7.950;2023-07-31T10:06:07;14.93;;;13.93;;
1136;SDS011;557;48.466;7.950;2023-07-31T10:08:57;17.42;;;16.42;;
1136;SDS011;557;48.466;7.950;2023-07-31T10:11:50;15.80;;;15.00;;
1136;SDS011;557;48.466;7.950;2023-07-31T10:14:47;15.85;;;14.75;;
1136;SDS011;557;48.466;7.950;2023-07-31T10:17:35;16.33;;;15.27;;
1136;SDS011;557;48.466;7.950;2023-07-31T10:20:24;16.90;;;15.90;;
1136;SDS011;557;48.466;7.950;2023-07-31T10:23:14;15.37;;;14.57;;
1136;SDS011;557;48.466;7.950;2023-07-31T10:26:03;15.30;;;14.50;;
1136;SDS011;557;48.466;7.950;2023-07-31T10:28:55;16.00;;;15.10;;
1136;SDS011;557;48.466;7.950;2023-07-31T10:31:45;15.67;;;14.67;;
1136;SDS011;557;48.466;7.950;2023-07-31T10:34:38;15.57;;;14.73;;
1136;SDS011;557;48.466;7.950;2023-07-31T10:37:29;17.17;;;16.10;;
1136;SDS011;557;48.466;7.950;2023-07-31T10:40:24;16.20;;;15.30;;
1136;SDS011;557;48.466;7.950;2023-07-31T10:43:23;16.60;;;15.70;;
1136;SDS011;557;48.466;7.950;2023-07-31T10:46:14;16.70;;;15.70;;
1136;SDS011;557;48.466;7.950;2023-07-31T10:49:02;16.33;;;15.40;;
1136;SDS011;557;48.466;7.950;2023-07-31T10:51:51;15.77;;;14.77;;
1136;SDS011;557;48.466;7.950;2023-07-31T10:54:43;17.03;;;15.90;;
1136;SDS011;557;48.466;7.950;2023-07-31T10:57:32;16.60;;;15.40;;
1136;SDS011;557;48.466;7.950;2023-07-31T11:00:25;16.40;;;15.50;;
1136;SDS011;557;48.466;7.950;2023-07-31T11:03:16;17.07;;;15.90;;
1136;SDS011;557;48.466;7.950;2023-07-31T11:06:07;16.73;;;15.73;;
1136;SDS011;557;48.466;7.950;2023-07-31T11:08:55;16.93;;;15.93;;
1136;SDS011;557;48.466;7.950;2023-07-31T11:11:43;17.03;;;16.00;;
1136;SDS011;557;48.466;7.950;2023-07-31T11:14:32;16.77;;;15.83;;
1136;SDS011;557;48.466;7.950;2023-07-31T11:17:20;15.90;;;14.80;;
1136;SDS011;557;48.466;7.950;2023-07-31T11:20:14;15.70;;;14.80;;
1136;SDS011;557;48.466;7.950;2023-07-31T11:23:02;16.37;;;15.40;;
1136;SDS011;557;48.466;7.950;2023-07-31T11:25:53;17.70;;;16.70;;
1136;SDS011;557;48.466;7.950;2023-07-31T11:28:48;16.67;;;15.67;;
1136;SDS011;557;48.466;7.950;2023-07-31T11:31:41;15.37;;;14.47;;
1136;SDS011;557;48.466;7.950;2023-07-31T11:34:30;17.45;;;16.25;;
1136;SDS011;557;48.466;7.950;2023-07-31T11:37:19;17.05;;;15.82;;
1136;SDS011;557;48.466;7.950;2023-07-31T11:40:08;15.95;;;14.95;;
1136;SDS011;557;48.466;7.950;2023-07-31T11:42:57;15.77;;;14.88;;
1136;SDS011;557;48.466;7.950;2023-07-31T11:45:46;16.73;;;15.38;;
1136;SDS011;557;48.466;7.950;2023-07-31T11:48:36;15.38;;;14.45;;
1136;SDS011;557;48.466;7.950;2023-07-31T11:51:24;16.00;;;15.00;;
1136;SDS011;557;48.466;7.950;2023-07-31T11:54:14;16.08;;;15.18;;
1136;SDS011;557;48.466;7.950;2023-07-31T11:57:03;18.10;;;16.70;;
1136;SDS011;557;48.466;7.950;2023-07-31T11:59:52;17.20;;;16.10;;
1136;SDS011;557;48.466;7.950;2023-07-31T12:02:40;17.55;;;16.48;;
1136;SDS011;557;48.466;7.950;2023-07-31T12:05:29;17.25;;;16.35;;
1136;SDS011;557;48.466;7.950;2023-07-31T12:08:17;17.50;;;16.50;;
1136;SDS011;557;48.466;7.950;2023-07-31T12:11:10;17.30;;;16.20;;
1136;SDS011;557;48.466;7.950;2023-07-31T12:13:59;16.42;;;15.43;;
1136;SDS011;557;48.466;7.950;2023-07-31T12:16:52;16.67;;;15.30;;
1136;SDS011;557;48.466;7.950;2023-07-31T12:19:42;17.27;;;16.10;;
1136;SDS011;557;48.466;7.950;2023-07-31T12:22:31;17.38;;;16.15;;
1136;SDS011;557;48.466;7.950;2023-07-31T12:25:19;16.40;;;15.30;;
1136;SDS011;557;48.466;7.950;2023-07-31T12:28:10;17.30;;;15.98;;
1136;SDS011;557;48.466;7.950;2023-07-31T12:31:01;16.75;;;15.65;;
1136;SDS011;557;48.466;7.950;2023-07-31T12:33:50;16.50;;;15.50;;
1136;SDS011;557;48.466;7.950;2023-07-31T12:36:38;16.48;;;15.38;;
1136;SDS011;557;48.466;7.950;2023-07-31T12:39:27;16.13;;;14.98;;
1136;SDS011;557;48.466;7.950;2023-07-31T12:42:17;16.40;;;15.25;;
1136;SDS011;557;48.466;7.950;2023-07-31T12:45:07;15.98;;;14.98;;
1136;SDS011;557;48.466;7.950;2023-07-31T12:47:56;16.70;;;15.70;;
1136;SDS011;557;48.466;7.950;2023-07-31T12:50:45;16.95;;;15.90;;
1136;SDS011;557;48.466;7.950;2023-07-31T12:53:33;16.02;;;15.00;;
1136;SDS011;557;48.466;7.950;2023-07-31T12:56:21;17.02;;;15.85;;
1136;SDS011;557;48.466;7.950;2023-07-31T12:59:09;16.42;;;15.45;;
1136;SDS011;557;48.466;7.950;2023-07-31T13:01:59;17.13;;;15.80;;
1136;SDS011;557;48.466;7.950;2023-07-31T13:04:49;16.63;;;15.73;;
1136;SDS011;557;48.466;7.950;2023-07-31T13:07:38;16.40;;;15.40;;
1136;SDS011;557;48.466;7.950;2023-07-31T13:10:26;17.02;;;15.82;;
1136;SDS011;557;48.466;7.950;2023-07-31T13:13:17;16.55;;;15.35;;
1136;SDS011;557;48.466;7.950;2023-07-31T13:16:09;16.40;;;15.30;;
1136;SDS011;557;48.466;7.950;2023-07-31T13:18:59;18.13;;;16.92;;
1136;SDS011;557;48.466;7.950;2023-07-31T13:21:47;19.02;;;17.92;;
1136;SDS011;557;48.466;7.950;2023-07-31T13:24:37;19.50;;;18.20;;
1136;SDS011;557;48.466;7.950;2023-07-31T13:27:25;18.67;;;17.48;;
1136;SDS011;557;48.466;7.950;2023-07-31T13:30:13;19.25;;;17.98;;
1136;SDS011;557;48.466;7.950;2023-07-31T13:33:02;17.73;;;16.73;;
1136;SDS011;557;48.466;7.950;2023-07-31T13:35:53;19.10;;;17.95;;
1136;SDS011;557;48.466;7.950;2023-07-31T13:38:41;18.55;;;17.38;;
1136;SDS011;557;48.466;7.950;2023-07-31T13:41:30;17.92;;;16.90;;
1136;SDS011;557;48.466;7.950;2023-07-31T13:44:19;19.08;;;17.88;;
1136;SDS011;557;48.466;7.950;2023-07-31T13:47:08;19.35;;;18.23;;
1136;SDS011;557;48.466;7.950;2023-07-31T13:49:57;19.23;;;18.02;;
1136;SDS011;557;48.466;7.950;2023-07-31T13:52:46;18.67;;;17.50;;
1136;SDS011;557;48.466;7.950;2023-07-31T13:55:35;18.65;;;17.55;;
1136;SDS011;557;48.466;7.950;2023-07-31T13:58:23;19.13;;;17.80;;
1136;SDS011;557;48.466;7.950;2023-07-31T14:01:20;19.10;;;18.05;;
1136;SDS011;557;48.466;7.950;2023-07-31T14:04:10;18.48;;;17.40;;
1136;SDS011;557;48.466;7.950;2023-07-31T14:06:58;18.13;;;17.13;;
1136;SDS011;557;48.466;7.950;2023-07-31T14:09:56;18.10;;;17.10;;
1136;SDS011;557;48.466;7.950;2023-07-31T14:12:46;18.98;;;17.88;;
1136;SDS011;557;48.466;7.950;2023-07-31T14:15:37;18.15;;;17.05;;
1136;SDS011;557;48.466;7.950;2023-07-31T14:18:27;17.95;;;16.95;;
1136;SDS011;557;48.466;7.950;2023-07-31T14:21:15;18.02;;;17.00;;
1136;SDS011;557;48.466;7.950;2023-07-31T14:24:06;18.20;;;17.20;;
1136;SDS011;557;48.466;7.950;2023-07-31T14:26:58;18.60;;;17.50;;
1136;SDS011;557;48.466;7.950;2023-07-31T14:29:47;17.77;;;16.83;;
1136;SDS011;557;48.466;7.950;2023-07-31T14:32:36;18.73;;;17.48;;
1136;SDS011;557;48.466;7.950;2023-07-31T14:35:25;18.73;;;17.58;;
1136;SDS011;557;48.466;7.950;2023-07-31T14:38:13;17.70;;;16.70;;
1136;SDS011;557;48.466;7.950;2023-07-31T14:41:02;18.10;;;17.17;;
1136;SDS011;557;48.466;7.950;2023-07-31T14:43:52;18.80;;;17.60;;
1136;SDS011;557;48.466;7.950;2023-07-31T14:46:41;18.80;;;17.77;;
1136;SDS011;557;48.466;7.950;2023-07-31T14:49:30;18.10;;;17.10;;
1136;SDS011;557;48.466;7.950;2023-07-31T14:52:19;17.40;;;16.20;;
1136;SDS011;557;48.466;7.950;2023-07-31T14:55:16;17.25;;;16.25;;
1136;SDS011;557;48.466;7.950;2023-07-31T14:58:11;17.00;;;16.10;;
1136;SDS011;557;48.466;7.950;2023-07-31T15:01:01;17.05;;;16.15;;
1136;SDS011;557;48.466;7.950;2023-07-31T15:03:49;17.77;;;16.67;;
1136;SDS011;557;48.466;7.950;2023-07-31T15:06:38;17.50;;;16.50;;
1136;SDS011;557;48.466;7.950;2023-07-31T15:09:27;17.17;;;16.17;;
1136;SDS011;557;48.466;7.950;2023-07-31T15:12:16;16.95;;;15.95;;
1136;SDS011;557;48.466;7.950;2023-07-31T15:15:05;16.50;;;15.40;;
1136;SDS011;557;48.466;7.950;2023-07-31T15:17:57;17.52;;;16.52;;
1136;SDS011;557;48.466;7.950;2023-07-31T15:20:47;17.65;;;16.70;;
1136;SDS011;557;48.466;7.950;2023-07-31T15:23:35;17.55;;;16.45;;
1136;SDS011;557;48.466;7.950;2023-07-31T15:26:25;17.60;;;16.40;;
1136;SDS011;557;48.466;7.950;2023-07-31T15:29:14;18.05;;;17.05;;
1136;SDS011;557;48.466;7.950;2023-07-31T15:32:06;18.90;;;17.67;;
1136;SDS011;557;48.466;7.950;2023-07-31T15:34:56;17.95;;;16.95;;
1136;SDS011;557;48.466;7.950;2023-07-31T15:37:45;18.15;;;17.05;;
1136;SDS011;557;48.466;7.950;2023-07-31T15:40:36;18.40;;;17.20;;
1136;SDS011;557;48.466;7.950;2023-07-31T15:43:26;18.33;;;17.23;;
1136;SDS011;557;48.466;7.950;2023-07-31T15:46:16;17.58;;;16.58;;
1136;SDS011;557;48.466;7.950;2023-07-31T15:49:06;18.48;;;17.20;;
1136;SDS011;557;48.466;7.950;2023-07-31T15:51:56;17.00;;;16.10;;
1136;SDS011;557;48.466;7.950;2023-07-31T15:54:44;18.08;;;16.98;;
1136;SDS011;557;48.466;7.950;2023-07-31T15:57:33;17.60;;;16.52;;
1136;SDS011;557;48.466;7.950;2023-07-31T16:00:21;17.00;;;16.00;;
1136;SDS011;557;48.466;7.950;2023-07-31T16:03:10;17.52;;;16.42;;
1136;SDS011;557;48.466;7.950;2023-07-31T16:05:59;16.92;;;16.05;;
1136;SDS011;557;48.466;7.950;2023-07-31T16:08:49;17.63;;;16.38;;
1136;SDS011;557;48.466;7.950;2023-07-31T16:11:38;16.40;;;15.50;;
1136;SDS011;557;48.466;7.950;2023-07-31T16:14:28;17.52;;;16.33;;
1136;SDS011;557;48.466;7.950;2023-07-31T16:17:16;16.60;;;15.70;;
1136;SDS011;557;48.466;7.950;2023-07-31T16:20:05;17.73;;;16.63;;
1136;SDS011;557;48.466;7.950;2023-07-31T16:22:55;17.95;;;16.65;;
1136;SDS011;557;48.466;7.950;2023-07-31T16:25:45;17.23;;;16.23;;
1136;SDS011;557;48.466;7.950;2023-07-31T16:28:34;16.95;;;16.05;;
1136;SDS011;557;48.466;7.950;2023-07-31T16:31:23;16.80;;;15.90;;
1136;SDS011;557;48.466;7.950;2023-07-31T16:34:11;25.52;;;23.42;;
1136;SDS011;557;48.466;7.950;2023-07-31T16:36:59;19.05;;;17.85;;
1136;SDS011;557;48.466;7.950;2023-07-31T16:39:48;16.65;;;15.75;;
1136;SDS011;557;48.466;7.950;2023-07-31T16:42:39;16.40;;;15.50;;
1136;SDS011;557;48.466;7.950;2023-07-31T16:45:27;15.85;;;15.05;;
1136;SDS011;557;48.466;7.950;2023-07-31T16:48:15;16.40;;;15.40;;
1136;SDS011;557;48.466;7.950;2023-07-31T16:51:04;16.92;;;16.00;;
1136;SDS011;557;48.466;7.950;2023-07-31T16:53:52;16.95;;;15.95;;
1136;SDS011;557;48.466;7.950;2023-07-31T16:56:40;18.25;;;17.15;;
1136;SDS011;557;48.466;7.950;2023-07-31T16:59:30;16.55;;;15.55;;
1136;SDS011;557;48.466;7.950;2023-07-31T17:02:18;17.30;;;16.20;;
1136;SDS011;557;48.466;7.950;2023-07-31T17:05:07;16.73;;;15.70;;
1136;SDS011;557;48.466;7.950;2023-07-31T17:07:55;16.90;;;15.90;;
1136;SDS011;557;48.466;7.950;2023-07-31T17:10:49;16.37;;;15.37;;
1136;SDS011;557;48.466;7.950;2023-07-31T17:13:38;15.97;;;14.77;;
1136;SDS011;557;48.466;7.950;2023-07-31T17:16:28;16.10;;;14.90;;
1136;SDS011;557;48.466;7.950;2023-07-31T17:19:19;13.87;;;13.07;;
1136;SDS011;557;48.466;7.950;2023-07-31T17:22:08;12.20;;;11.30;;
1136;SDS011;557;48.466;7.950;2023-07-31T17:24:55;10.57;;;9.90;;
1136;SDS011;557;48.466;7.950;2023-07-31T17:27:43;8.70;;;8.00;;
1136;SDS011;557;48.466;7.950;2023-07-31T17:30:33;9.63;;;8.23;;
1136;SDS011;557;48.466;7.950;2023-07-31T17:33:23;7.63;;;5.60;;
1136;SDS011;557;48.466;7.950;2023-07-31T17:36:11;6.57;;;5.43;;